createdAt,value
2022-10-11T00:02:17.452Z,16.20
2022-10-11T00:04:51.722Z,16.20
2022-10-11T00:07:19.714Z,16.20
2022-10-11T00:09:53.716Z,16.20
2022-10-11T00:12:21.259Z,16.20
2022-10-11T00:14:55.121Z,16.20
2022-10-11T00:17:28.777Z,16.20
2022-10-11T00:20:02.758Z,16.20
2022-10-11T00:22:29.877Z,16.20
2022-10-11T00:25:06.013Z,16.20
2022-10-11T00:27:35.443Z,16.20
2022-10-11T00:30:09.773Z,16.30
2022-10-11T00:32:45.710Z,16.30
2022-10-11T00:35:19.911Z,16.30
2022-10-11T00:37:47.124Z,16.30
2022-10-11T00:40:25.207Z,16.30
2022-10-11T00:42:52.422Z,16.30
2022-10-11T00:45:37.907Z,16.30
2022-10-11T00:48:07.713Z,16.40
2022-10-11T00:50:43.783Z,16.40
2022-10-11T00:53:14.858Z,16.40
2022-10-11T00:56:00.785Z,16.40
2022-10-11T00:58:35.729Z,16.40
2022-10-11T01:01:03.651Z,16.40
2022-10-11T01:03:39.841Z,16.40
2022-10-11T01:06:13.703Z,16.40
2022-10-11T01:08:42.533Z,16.40
2022-10-11T01:11:20.697Z,16.40
2022-10-11T01:14:27.907Z,16.40
2022-10-11T01:17:26.792Z,16.40
2022-10-11T01:20:15.922Z,16.30
2022-10-11T01:22:59.717Z,16.20
2022-10-11T01:25:39.767Z,16.20
2022-10-11T01:28:13.862Z,16.20
2022-10-11T01:30:48.968Z,16.10
2022-10-11T01:33:39.901Z,16.00
2022-10-11T01:36:34.973Z,16.00
2022-10-11T01:39:13.731Z,16.00
2022-10-11T01:41:54.352Z,15.90
2022-10-11T01:44:26.368Z,15.90
2022-10-11T01:47:00.923Z,15.80
2022-10-11T01:49:34.909Z,15.70
2022-10-11T01:52:13.227Z,15.70
2022-10-11T01:55:10.479Z,15.60
2022-10-11T01:57:59.672Z,15.60
2022-10-11T02:00:34.332Z,15.50
2022-10-11T02:03:16.792Z,15.50
2022-10-11T02:06:04.178Z,15.50
2022-10-11T02:08:44.816Z,15.50
2022-10-11T02:11:45.751Z,15.50
2022-10-11T02:14:29.817Z,15.50
2022-10-11T02:17:20.756Z,15.50
2022-10-11T02:19:58.807Z,15.50
2022-10-11T02:22:39.026Z,15.50
2022-10-11T02:25:11.011Z,15.60
2022-10-11T02:27:46.772Z,15.60
2022-10-11T02:30:15.952Z,15.60
2022-10-11T02:32:44.916Z,15.60
2022-10-11T02:35:22.036Z,15.60
2022-10-11T02:38:06.826Z,15.60
2022-10-11T02:40:44.823Z,15.60
2022-10-11T02:43:20.356Z,15.60
2022-10-11T02:45:58.907Z,15.50
2022-10-11T02:48:29.919Z,15.50
2022-10-11T02:51:06.827Z,15.40
2022-10-11T02:53:40.962Z,15.40
2022-10-11T02:56:16.741Z,15.40
2022-10-11T02:58:50.706Z,15.30
2022-10-11T03:01:18.237Z,15.30
2022-10-11T03:03:51.768Z,15.20
2022-10-11T03:06:25.811Z,15.20
2022-10-11T03:08:53.095Z,15.10
2022-10-11T03:11:26.742Z,15.10
2022-10-11T03:14:13.827Z,15.10
2022-10-11T03:16:47.867Z,15.10
2022-10-11T03:19:19.358Z,15.00
2022-10-11T03:21:53.846Z,15.10
2022-10-11T03:24:21.241Z,15.00
2022-10-11T03:26:54.816Z,15.00
2022-10-11T03:29:22.636Z,14.90
2022-10-11T03:31:57.237Z,14.80
2022-10-11T03:34:24.469Z,14.80
2022-10-11T03:36:51.890Z,14.90
2022-10-11T03:39:25.787Z,14.90
2022-10-11T03:41:59.825Z,14.80
2022-10-11T03:44:34.783Z,14.80
2022-10-11T03:47:02.000Z,14.80
2022-10-11T03:49:38.821Z,14.80
2022-10-11T03:52:10.187Z,14.70
2022-10-11T03:54:43.762Z,14.80
2022-10-11T03:57:12.172Z,14.70
2022-10-11T03:59:45.769Z,14.70
2022-10-11T04:02:13.013Z,14.70
2022-10-11T04:04:46.768Z,14.70
2022-10-11T04:07:13.997Z,14.70
2022-10-11T04:09:47.726Z,14.70
2022-10-11T04:12:16.332Z,14.70
2022-10-11T04:14:56.671Z,14.70
2022-10-11T04:17:36.731Z,14.60
2022-10-11T04:20:10.688Z,14.60
2022-10-11T04:22:45.776Z,14.60
2022-10-11T04:25:19.832Z,14.60
2022-10-11T04:27:47.093Z,14.70
2022-10-11T04:30:21.952Z,14.70
2022-10-11T04:32:49.211Z,14.70
2022-10-11T04:35:23.252Z,14.70
2022-10-11T04:37:50.612Z,14.70
2022-10-11T04:40:17.992Z,14.70
2022-10-11T04:42:52.097Z,14.70
2022-10-11T04:45:19.772Z,14.70
2022-10-11T04:47:54.715Z,14.80
2022-10-11T04:50:22.367Z,14.80
2022-10-11T04:52:55.804Z,14.80
2022-10-11T04:55:30.756Z,14.80
2022-10-11T04:58:04.828Z,14.90
2022-10-11T05:00:32.237Z,14.90
2022-10-11T05:03:05.709Z,14.90
2022-10-11T05:05:34.533Z,14.90
2022-10-11T05:08:08.749Z,14.90
2022-10-11T05:10:36.014Z,14.90
2022-10-11T05:13:03.944Z,14.90
2022-10-11T05:15:37.734Z,14.90
2022-10-11T05:18:06.525Z,14.90
2022-10-11T05:20:40.785Z,14.90
2022-10-11T05:23:09.205Z,14.80
2022-10-11T05:25:43.834Z,14.80
2022-10-11T05:28:10.930Z,14.80
2022-10-11T05:30:44.977Z,14.80
2022-10-11T05:33:12.204Z,14.80
2022-10-11T05:35:45.855Z,14.80
2022-10-11T05:38:13.413Z,14.80
2022-10-11T05:40:46.859Z,14.70
2022-10-11T05:43:14.101Z,14.70
2022-10-11T05:45:49.854Z,14.60
2022-10-11T05:48:23.789Z,14.60
2022-10-11T05:50:51.244Z,14.60
2022-10-11T05:53:25.104Z,14.60
2022-10-11T05:55:52.345Z,14.60
2022-10-11T05:58:26.989Z,14.50
2022-10-11T06:01:01.947Z,14.50
2022-10-11T06:03:29.103Z,14.50
2022-10-11T06:06:04.638Z,14.50
2022-10-11T06:08:32.251Z,14.60
2022-10-11T06:11:09.120Z,14.60
2022-10-11T06:13:45.833Z,14.60
2022-10-11T06:16:25.814Z,14.60
2022-10-11T06:19:02.154Z,14.60
2022-10-11T06:21:35.921Z,14.70
2022-10-11T06:24:03.351Z,14.70
2022-10-11T06:26:37.899Z,14.80
2022-10-11T06:29:06.255Z,14.80
2022-10-11T06:31:40.302Z,14.90
2022-10-11T06:34:15.521Z,14.90
2022-10-11T06:36:49.029Z,14.90
2022-10-11T06:39:16.288Z,15.00
2022-10-11T06:41:49.994Z,15.00
2022-10-11T06:44:18.614Z,15.00
2022-10-11T06:46:52.772Z,15.10
2022-10-11T06:49:23.278Z,15.10
2022-10-11T06:51:57.816Z,15.10
2022-10-11T06:54:26.129Z,15.20
2022-10-11T06:56:59.805Z,15.20
2022-10-11T06:59:28.875Z,15.30
2022-10-11T07:02:02.948Z,15.30
2022-10-11T07:04:30.469Z,15.40
2022-10-11T07:07:04.734Z,15.40
2022-10-11T07:09:32.870Z,15.50
2022-10-11T07:11:59.919Z,15.50
2022-10-11T07:14:33.859Z,15.60
2022-10-11T07:17:08.134Z,15.60
2022-10-11T07:19:42.160Z,15.60
2022-10-11T07:22:09.699Z,15.60
2022-10-11T07:24:44.013Z,15.70
2022-10-11T07:27:18.046Z,15.80
2022-10-11T07:29:51.888Z,15.90
2022-10-11T07:32:19.054Z,15.90
2022-10-11T07:34:53.879Z,16.00
2022-10-11T07:37:21.659Z,16.10
2022-10-11T07:39:56.884Z,16.20
2022-10-11T07:42:23.978Z,16.30
2022-10-11T07:44:58.319Z,16.50
2022-10-11T07:47:32.840Z,16.50
2022-10-11T07:50:00.429Z,16.60
2022-10-11T07:52:34.819Z,16.60
2022-10-11T07:55:01.925Z,16.60
2022-10-11T07:57:35.789Z,16.60
2022-10-11T08:00:03.433Z,16.60
2022-10-11T08:02:36.849Z,16.60
2022-10-11T08:05:05.029Z,16.60
2022-10-11T08:07:38.756Z,16.60
2022-10-11T08:10:07.348Z,16.60
2022-10-11T08:12:41.873Z,16.50
2022-10-11T08:15:30.880Z,16.50
2022-10-11T08:18:06.966Z,16.50
2022-10-11T08:20:35.552Z,16.50
2022-10-11T08:23:10.083Z,16.50
2022-10-11T08:25:52.804Z,16.50
2022-10-11T08:28:27.890Z,16.50
2022-10-11T08:30:56.109Z,16.50
2022-10-11T08:33:32.323Z,16.50
2022-10-11T08:35:59.993Z,16.50
2022-10-11T08:38:33.804Z,16.50
2022-10-11T08:41:07.834Z,16.50
2022-10-11T08:44:12.895Z,16.60
2022-10-11T08:46:51.143Z,16.60
2022-10-11T08:49:28.838Z,16.60
2022-10-11T08:52:28.586Z,16.60
2022-10-11T08:55:08.989Z,16.60
2022-10-11T08:57:39.338Z,16.60
2022-10-11T09:00:20.853Z,16.50
2022-10-11T09:03:08.656Z,16.50
2022-10-11T09:05:48.872Z,16.50
2022-10-11T09:08:16.078Z,16.60
2022-10-11T09:11:18.877Z,16.60
2022-10-11T09:14:14.086Z,16.60
2022-10-11T09:17:12.199Z,16.60
2022-10-11T09:19:49.243Z,16.70
2022-10-11T09:23:01.817Z,16.80
2022-10-11T09:25:37.675Z,16.90
2022-10-11T09:28:30.272Z,16.90
2022-10-11T09:30:59.596Z,17.00
2022-10-11T09:33:46.268Z,17.10
2022-10-11T09:36:19.837Z,17.10
2022-10-11T09:39:01.894Z,17.20
2022-10-11T09:42:00.326Z,17.20
2022-10-11T09:44:50.241Z,17.20
2022-10-11T09:47:28.970Z,17.30
2022-10-11T09:50:03.248Z,17.30
2022-10-11T09:52:37.952Z,17.40
2022-10-11T09:55:05.715Z,17.40
2022-10-11T09:57:45.902Z,17.50
2022-10-11T10:00:21.054Z,17.50
2022-10-11T10:03:01.999Z,17.50
2022-10-11T10:05:37.842Z,17.60
2022-10-11T10:08:18.080Z,17.60
2022-10-11T10:10:59.280Z,17.60
2022-10-11T10:13:57.978Z,17.60
2022-10-11T10:16:48.878Z,17.60
2022-10-11T10:19:29.928Z,17.60
2022-10-11T10:22:06.012Z,17.60
2022-10-11T10:24:42.110Z,17.70
2022-10-11T10:27:31.857Z,17.70
2022-10-11T10:30:13.743Z,17.70
2022-10-11T10:33:11.821Z,17.70
2022-10-11T10:35:46.953Z,17.70
2022-10-11T10:38:51.299Z,17.70
2022-10-11T10:41:19.817Z,17.60
2022-10-11T10:44:00.827Z,17.60
2022-10-11T10:46:34.367Z,17.60
2022-10-11T10:49:52.627Z,17.60
2022-10-11T10:52:59.902Z,17.50
2022-10-11T10:55:39.962Z,17.50
2022-10-11T10:58:16.398Z,17.50
2022-10-11T11:01:11.873Z,17.50
2022-10-11T11:03:47.386Z,17.40
2022-10-11T11:06:36.737Z,17.50
2022-10-11T11:09:24.947Z,17.50
2022-10-11T11:12:13.148Z,17.50
2022-10-11T11:15:06.290Z,17.50
2022-10-11T11:18:18.327Z,17.50
2022-10-11T11:20:45.504Z,17.50
2022-10-11T11:23:45.018Z,17.60
2022-10-11T11:26:26.653Z,17.60
2022-10-11T11:29:36.275Z,17.60
2022-10-11T11:32:47.889Z,17.70
2022-10-11T11:35:27.553Z,17.70
2022-10-11T11:38:08.177Z,17.80
2022-10-11T11:41:04.342Z,17.80
2022-10-11T11:44:05.306Z,17.80
2022-10-11T11:47:01.326Z,17.80
2022-10-11T11:49:36.285Z,17.90
2022-10-11T11:52:11.996Z,17.90
2022-10-11T11:54:39.205Z,17.90
2022-10-11T11:57:45.072Z,18.00
2022-10-11T12:00:24.957Z,17.90
2022-10-11T12:03:17.970Z,18.00
2022-10-11T12:06:16.713Z,17.90
2022-10-11T12:09:01.816Z,17.90
2022-10-11T12:11:36.980Z,17.90
2022-10-11T12:14:27.985Z,17.90
2022-10-11T12:17:28.990Z,17.90
2022-10-11T12:20:15.996Z,17.80
2022-10-11T12:23:01.062Z,17.80
2022-10-11T12:25:35.791Z,17.80
2022-10-11T12:28:56.095Z,17.80
2022-10-11T12:31:40.296Z,17.80
2022-10-11T12:37:20.358Z,17.90
2022-10-11T12:40:06.245Z,17.90
2022-10-11T12:42:37.415Z,17.90
2022-10-11T12:45:21.275Z,17.90
2022-10-11T12:48:08.059Z,18.00
2022-10-11T12:51:06.869Z,18.10
2022-10-11T12:54:28.192Z,18.20
2022-10-11T12:57:15.964Z,18.20
2022-10-11T12:59:46.915Z,18.30
2022-10-11T13:02:42.289Z,18.40
2022-10-11T13:05:27.463Z,18.50
2022-10-11T13:08:05.957Z,18.70
2022-10-11T13:10:53.294Z,18.90
2022-10-11T13:13:30.079Z,19.00
2022-10-11T13:16:23.034Z,19.10
2022-10-11T13:19:07.013Z,19.10
2022-10-11T13:21:36.521Z,19.20
2022-10-11T13:24:26.890Z,19.30
2022-10-11T13:27:04.616Z,19.40
2022-10-11T13:29:45.153Z,19.50
2022-10-11T13:32:25.120Z,19.50
2022-10-11T13:35:12.224Z,19.70
2022-10-11T13:37:46.044Z,19.70
2022-10-11T13:40:27.975Z,19.80
2022-10-11T13:42:56.088Z,19.90
2022-10-11T13:45:37.214Z,19.90
2022-10-11T13:48:05.314Z,19.80
2022-10-11T13:50:40.805Z,19.70
2022-10-11T13:53:16.858Z,19.60
2022-10-11T13:56:02.583Z,19.50
2022-10-11T13:58:41.995Z,19.40
2022-10-11T14:01:20.429Z,19.30
2022-10-11T14:04:05.987Z,19.30
2022-10-11T14:06:47.824Z,19.30
2022-10-11T14:09:30.034Z,19.30
2022-10-11T14:12:45.909Z,19.30
2022-10-11T14:15:39.047Z,19.30
2022-10-11T14:18:43.964Z,19.30
2022-10-11T14:21:27.475Z,19.30
2022-10-11T14:24:13.033Z,19.30
2022-10-11T14:26:46.396Z,19.30
2022-10-11T14:29:30.217Z,19.30
2022-10-11T14:32:27.975Z,19.30
2022-10-11T14:34:56.011Z,19.20
2022-10-11T14:37:30.154Z,19.20
2022-10-11T14:40:04.299Z,19.10
2022-10-11T14:42:37.945Z,19.10
2022-10-11T14:45:11.965Z,19.00
2022-10-11T14:47:46.954Z,18.90
2022-10-11T14:50:34.138Z,18.90
2022-10-11T14:53:07.961Z,18.80
2022-10-11T14:55:47.281Z,18.80
2022-10-11T14:58:24.124Z,18.70
2022-10-11T15:00:51.601Z,18.70
2022-10-11T15:03:25.065Z,18.60
2022-10-11T15:05:59.999Z,18.60
2022-10-11T15:08:33.959Z,18.50
2022-10-11T15:11:08.074Z,18.40
2022-10-11T15:13:35.825Z,18.40
2022-10-11T15:16:10.009Z,18.40
2022-10-11T15:18:44.520Z,18.30
2022-10-11T15:21:22.280Z,18.30
2022-10-11T15:23:51.119Z,18.30
2022-10-11T15:26:29.519Z,18.20
2022-10-11T15:28:57.874Z,18.20
2022-10-11T15:31:32.019Z,18.20
2022-10-11T15:34:02.114Z,18.10
2022-10-11T15:36:37.279Z,18.10
2022-10-11T15:39:05.154Z,18.10
2022-10-11T15:41:39.249Z,18.10
2022-10-11T15:44:06.500Z,18.00
2022-10-11T15:46:40.160Z,18.00
2022-10-11T15:49:12.669Z,18.00
2022-10-11T15:51:47.083Z,18.00
2022-10-11T15:54:14.310Z,17.90
2022-10-11T15:56:48.231Z,17.90
2022-10-11T15:59:22.279Z,17.90
2022-10-11T16:01:56.174Z,17.90
2022-10-11T16:04:23.549Z,17.90
2022-10-11T16:06:52.089Z,17.80
2022-10-11T16:09:26.029Z,17.80
2022-10-11T16:11:54.359Z,17.80
2022-10-11T16:14:28.331Z,17.80
2022-10-11T16:17:03.766Z,17.80
2022-10-11T16:19:37.962Z,17.70
2022-10-11T16:22:05.069Z,17.70
2022-10-11T16:24:38.970Z,17.70
2022-10-11T16:27:06.404Z,17.70
2022-10-11T16:29:40.279Z,17.60
2022-10-11T16:32:07.537Z,17.60
2022-10-11T16:34:42.154Z,17.60
2022-10-11T16:37:09.559Z,17.50
2022-10-11T16:39:43.038Z,17.50
2022-10-11T16:42:17.110Z,17.40
2022-10-11T16:44:45.280Z,17.40
2022-10-11T16:47:19.025Z,17.30
2022-10-11T16:49:54.070Z,17.30
2022-10-11T16:52:27.994Z,17.30
2022-10-11T16:54:55.646Z,17.20
2022-10-11T16:57:30.181Z,17.10
2022-10-11T17:00:15.289Z,17.10
2022-10-11T17:02:55.009Z,17.10
2022-10-11T17:05:23.738Z,17.00
2022-10-11T17:07:58.020Z,17.00
2022-10-11T17:10:45.958Z,16.90
2022-10-11T17:13:21.358Z,16.90
2022-10-11T17:15:56.986Z,16.90
2022-10-11T17:18:31.743Z,16.90
2022-10-11T17:21:15.441Z,16.90
2022-10-11T17:23:51.137Z,16.90
2022-10-11T17:26:21.872Z,16.90
2022-10-11T17:28:56.037Z,16.90
2022-10-11T17:31:24.646Z,16.90
2022-10-11T17:34:00.118Z,16.90
2022-10-11T17:36:34.968Z,16.90
2022-10-11T17:39:16.029Z,16.90
2022-10-11T17:41:44.511Z,16.90
2022-10-11T17:44:20.510Z,16.90
2022-10-11T17:46:48.524Z,16.90
2022-10-11T17:49:23.136Z,16.90
2022-10-11T17:51:57.050Z,16.90
2022-10-11T17:54:24.984Z,16.80
2022-10-11T17:56:59.798Z,16.80
2022-10-11T17:59:28.307Z,16.80
2022-10-11T18:02:02.163Z,16.80
2022-10-11T18:04:36.995Z,16.80
2022-10-11T18:07:13.068Z,16.80
2022-10-11T18:09:49.076Z,16.80
2022-10-11T18:12:23.101Z,16.80
2022-10-11T18:14:51.400Z,16.80
2022-10-11T18:17:31.019Z,16.80
2022-10-11T18:19:58.464Z,16.80
2022-10-11T18:22:32.074Z,16.80
2022-10-11T18:25:06.580Z,16.80
2022-10-11T18:27:34.735Z,16.80
2022-10-11T18:30:09.043Z,16.80
2022-10-11T18:32:36.500Z,16.80
2022-10-11T18:35:11.019Z,16.80
2022-10-11T18:37:38.381Z,16.80
2022-10-11T18:40:14.074Z,16.80
2022-10-11T18:42:41.564Z,16.80
2022-10-11T18:45:16.124Z,16.80
2022-10-11T18:47:45.957Z,16.80
2022-10-11T18:50:20.987Z,16.80
2022-10-11T18:52:49.487Z,16.80
2022-10-11T18:55:23.251Z,16.90
2022-10-11T18:57:51.976Z,16.90
2022-10-11T19:00:39.646Z,16.90
2022-10-11T19:03:14.141Z,16.90
2022-10-11T19:05:41.371Z,16.90
2022-10-11T19:08:15.175Z,16.90
2022-10-11T19:10:42.503Z,16.80
2022-10-11T19:13:16.167Z,16.80
2022-10-11T19:15:50.404Z,16.80
2022-10-11T19:18:30.323Z,16.80
2022-10-11T19:21:09.254Z,16.80
2022-10-11T19:23:40.006Z,16.80
2022-10-11T19:26:16.042Z,16.80
2022-10-11T19:28:43.990Z,16.80
2022-10-11T19:31:23.083Z,16.80
2022-10-11T19:33:50.628Z,16.80
2022-10-11T19:36:26.009Z,16.80
2022-10-11T19:38:57.104Z,16.80
2022-10-11T19:41:33.089Z,16.80
2022-10-11T19:44:06.963Z,16.80
2022-10-11T19:46:51.633Z,16.70
2022-10-11T19:49:23.628Z,16.70
2022-10-11T19:51:58.039Z,16.70
2022-10-11T19:54:32.432Z,16.70
2022-10-11T19:57:06.189Z,16.70
2022-10-11T19:59:40.288Z,16.70
2022-10-11T20:02:14.067Z,16.70
2022-10-11T20:04:52.356Z,16.70
2022-10-11T20:07:20.556Z,16.70
2022-10-11T20:09:55.283Z,16.70
2022-10-11T20:12:22.901Z,16.70
2022-10-11T20:14:57.331Z,16.70
2022-10-11T20:17:49.666Z,16.70
2022-10-11T20:20:31.409Z,16.60
2022-10-11T20:22:58.683Z,16.60
2022-10-11T20:25:34.421Z,16.60
2022-10-11T20:28:01.674Z,16.60
2022-10-11T20:30:35.208Z,16.60
2022-10-11T20:33:09.241Z,16.60
2022-10-11T20:35:38.339Z,16.60
2022-10-11T20:38:28.968Z,16.60
2022-10-11T20:40:57.932Z,16.60
2022-10-11T20:43:33.440Z,16.50
2022-10-11T20:46:02.721Z,16.50
2022-10-11T20:48:38.365Z,16.50
2022-10-11T20:51:19.462Z,16.50
2022-10-11T20:53:47.641Z,16.40
2022-10-11T20:56:23.310Z,16.40
2022-10-11T20:58:55.912Z,16.40
2022-10-11T21:01:42.407Z,16.40
2022-10-11T21:04:28.266Z,16.30
2022-10-11T21:07:17.053Z,16.30
2022-10-11T21:09:52.125Z,16.30
2022-10-11T21:12:19.781Z,16.20
2022-10-11T21:14:54.271Z,16.30
2022-10-11T21:17:28.430Z,16.30
2022-10-11T21:20:10.282Z,16.30
2022-10-11T21:22:44.170Z,16.30
2022-10-11T21:25:19.820Z,16.30
2022-10-11T21:27:54.801Z,16.30
2022-10-11T21:30:29.843Z,16.20
2022-10-11T21:32:57.951Z,16.20
2022-10-11T21:35:36.262Z,16.20
2022-10-11T21:38:04.023Z,16.20
2022-10-11T21:40:38.743Z,16.10
2022-10-11T21:43:07.252Z,16.10
2022-10-11T21:45:45.942Z,16.10
2022-10-11T21:48:13.561Z,16.00
2022-10-11T21:50:47.333Z,16.00
2022-10-11T21:53:21.119Z,15.90
2022-10-11T21:55:48.642Z,15.80
2022-10-11T21:58:24.208Z,15.70
2022-10-11T22:00:51.980Z,15.70
2022-10-11T22:03:26.420Z,15.60
2022-10-11T22:05:53.980Z,15.60
2022-10-11T22:08:28.599Z,15.60
2022-10-11T22:10:58.363Z,15.60
2022-10-11T22:13:34.739Z,15.50
2022-10-11T22:16:23.241Z,15.50
2022-10-11T22:19:04.801Z,15.50
2022-10-11T22:21:44.003Z,15.40
2022-10-11T22:24:19.312Z,15.30
2022-10-11T22:26:53.310Z,15.30
2022-10-11T22:29:20.900Z,15.30
2022-10-11T22:31:55.164Z,15.20
2022-10-11T22:34:29.103Z,15.20
2022-10-11T22:36:57.524Z,15.10
2022-10-11T22:39:31.082Z,15.10
2022-10-11T22:41:58.822Z,15.10
2022-10-11T22:44:33.133Z,15.10
2022-10-11T22:47:00.403Z,15.00
2022-10-11T22:49:34.492Z,15.00
2022-10-11T22:52:08.132Z,14.90
2022-10-11T22:54:35.663Z,14.90
2022-10-11T22:57:11.104Z,14.90
2022-10-11T22:59:38.503Z,14.90
2022-10-11T23:02:12.553Z,14.90
2022-10-11T23:04:39.755Z,14.90
2022-10-11T23:07:14.063Z,14.90
2022-10-11T23:09:41.382Z,14.90
2022-10-11T23:12:15.105Z,14.90
2022-10-11T23:14:42.537Z,14.80
2022-10-11T23:17:24.143Z,14.80
2022-10-11T23:19:57.933Z,14.80
2022-10-11T23:22:32.556Z,14.80
2022-10-11T23:25:00.210Z,14.80
2022-10-11T23:27:37.297Z,14.80
2022-10-11T23:30:05.974Z,14.80
2022-10-11T23:32:40.453Z,14.70
2022-10-11T23:35:08.373Z,14.80
2022-10-11T23:37:42.274Z,14.80
2022-10-11T23:40:10.075Z,14.80
2022-10-11T23:42:44.564Z,14.80
2022-10-11T23:45:18.153Z,14.80
2022-10-11T23:47:45.403Z,14.80
2022-10-11T23:50:19.154Z,14.80
2022-10-11T23:52:46.424Z,14.80
2022-10-11T23:55:20.534Z,14.90
2022-10-11T23:57:47.783Z,14.90
